Streator East, Illinois
Current Conditions -  °F | °C
As of 1:35 PM on Wednesday 17 Dec 2014 (Local Time) from KPNT Reporting Station
Overcast Overcast  
Wind Chill: 18°   Ceiling: 1900
Heat Index: 28°   Visibility: 10mi
Dew Point: 22°   Wind: 10mph
Humidity: 78%   Direction: 310°NW
Pressure: 30.25"   Gusts: NA
Location:  41.1182°N, 88.8294°W
Report Text: KPNT 171935Z AUTO 31009KT 10SM OVC019 M02/M06 A3025 RMK AO2 T10251058
Loading
Personal Weather Stations






























Interactive Weather Map New forecast layout! Learn more

10-Day Weather Forecast

Advertisements
Track Severe Weather on mobile